createdAt,value
2022-11-05T00:00:39.076Z,10.00
2022-11-05T00:03:28.973Z,10.10
2022-11-05T00:06:16.875Z,10.10
2022-11-05T00:09:02.191Z,10.10
2022-11-05T00:11:45.519Z,10.10
2022-11-05T00:14:30.702Z,10.10
2022-11-05T00:16:59.781Z,10.20
2022-11-05T00:19:28.992Z,10.20
2022-11-05T00:22:17.002Z,10.10
2022-11-05T00:25:02.429Z,10.20
2022-11-05T00:27:34.235Z,10.10
2022-11-05T00:30:02.570Z,10.10
2022-11-05T00:32:31.468Z,10.10
2022-11-05T00:34:59.980Z,10.10
2022-11-05T00:37:30.440Z,10.00
2022-11-05T00:39:58.549Z,10.00
2022-11-05T00:42:44.109Z,10.00
2022-11-05T00:45:13.978Z,10.00
2022-11-05T00:48:00.291Z,10.00
2022-11-05T00:50:32.069Z,9.90
2022-11-05T00:53:00.987Z,9.90
2022-11-05T00:55:34.783Z,9.90
2022-11-05T00:58:04.739Z,9.90
2022-11-05T01:00:36.694Z,9.80
2022-11-05T01:03:07.178Z,9.80
2022-11-05T01:05:40.038Z,9.80
2022-11-05T01:08:09.780Z,9.70
2022-11-05T01:10:41.527Z,9.70
2022-11-05T01:13:13.026Z,9.70
2022-11-05T01:15:44.202Z,9.70
2022-11-05T01:18:12.912Z,9.60
2022-11-05T01:20:41.357Z,9.60
2022-11-05T01:23:13.486Z,9.60
2022-11-05T01:25:42.167Z,9.50
2022-11-05T01:28:12.242Z,9.50
2022-11-05T01:30:43.633Z,9.50
2022-11-05T01:33:12.064Z,9.50
2022-11-05T01:35:41.067Z,9.50
2022-11-05T01:38:09.336Z,9.40
2022-11-05T01:40:37.484Z,9.50
2022-11-05T01:43:12.767Z,9.40
2022-11-05T01:45:43.215Z,9.40
2022-11-05T01:48:16.796Z,9.40
2022-11-05T01:50:50.727Z,9.40
2022-11-05T01:53:24.206Z,9.40
2022-11-05T01:55:58.768Z,9.30
2022-11-05T01:58:33.162Z,9.30
2022-11-05T02:01:02.750Z,9.20
2022-11-05T02:03:31.439Z,9.20
2022-11-05T02:06:01.785Z,9.20
2022-11-05T02:08:54.970Z,9.20
2022-11-05T02:11:23.248Z,9.20
2022-11-05T02:13:51.911Z,9.20
2022-11-05T02:16:32.848Z,9.10
2022-11-05T02:19:14.150Z,9.10
2022-11-05T02:22:12.072Z,9.00
2022-11-05T02:24:59.117Z,9.00
2022-11-05T02:27:59.429Z,9.00
2022-11-05T02:30:43.665Z,8.90
2022-11-05T02:33:23.367Z,8.90
2022-11-05T02:36:10.324Z,8.90
2022-11-05T02:38:44.143Z,8.80
2022-11-05T02:41:20.377Z,8.80
2022-11-05T02:44:00.446Z,8.80
2022-11-05T02:46:35.875Z,8.80
2022-11-05T02:49:16.750Z,8.80
2022-11-05T02:51:52.400Z,8.80
2022-11-05T02:54:26.896Z,8.80
2022-11-05T02:56:57.851Z,8.80
2022-11-05T02:59:25.856Z,8.70
2022-11-05T03:01:57.651Z,8.70
2022-11-05T03:04:27.012Z,8.70
2022-11-05T03:07:31.642Z,8.70
2022-11-05T03:10:17.691Z,8.70
2022-11-05T03:13:02.708Z,8.70
2022-11-05T03:15:52.107Z,8.70
2022-11-05T03:18:28.684Z,8.70
2022-11-05T03:21:04.375Z,8.70
2022-11-05T03:23:37.253Z,8.60
2022-11-05T03:26:10.139Z,8.70
2022-11-05T03:28:43.436Z,8.60
2022-11-05T03:31:14.523Z,8.60
2022-11-05T03:33:46.972Z,8.70
2022-11-05T03:36:23.124Z,8.60
2022-11-05T03:38:54.483Z,8.60
2022-11-05T03:41:24.186Z,8.60
2022-11-05T03:43:56.643Z,8.60
2022-11-05T03:46:29.229Z,8.60
2022-11-05T03:49:03.003Z,8.60
2022-11-05T03:51:39.891Z,8.60
2022-11-05T03:54:08.417Z,8.60
2022-11-05T03:56:40.411Z,8.60
2022-11-05T03:59:11.615Z,8.60
2022-11-05T04:01:40.406Z,8.50
2022-11-05T04:04:11.060Z,8.50
2022-11-05T04:06:56.310Z,8.50
2022-11-05T04:09:41.675Z,8.50
2022-11-05T04:12:29.063Z,8.50
2022-11-05T04:14:57.256Z,8.40
2022-11-05T04:17:24.735Z,8.50
2022-11-05T04:20:11.572Z,8.40
2022-11-05T04:22:57.165Z,8.40
2022-11-05T04:25:25.528Z,8.50
2022-11-05T04:27:54.409Z,8.40
2022-11-05T04:30:23.229Z,8.40
2022-11-05T04:33:01.081Z,8.50
2022-11-05T04:35:32.517Z,8.50
2022-11-05T04:38:03.034Z,8.50
2022-11-05T04:40:33.009Z,8.40
2022-11-05T04:43:01.256Z,8.40
2022-11-05T04:45:31.870Z,8.50
2022-11-05T04:48:03.709Z,8.50
2022-11-05T04:50:34.285Z,8.40
2022-11-05T04:53:02.347Z,8.50
2022-11-05T04:55:31.015Z,8.40
2022-11-05T04:57:59.377Z,8.40
2022-11-05T05:00:28.105Z,8.50
2022-11-05T05:02:56.197Z,8.40
2022-11-05T05:05:24.197Z,8.40
2022-11-05T05:07:53.759Z,8.40
2022-11-05T05:10:21.718Z,8.40
2022-11-05T05:12:49.591Z,8.40
2022-11-05T05:15:17.732Z,8.50
2022-11-05T05:17:52.338Z,8.50
2022-11-05T05:20:38.293Z,8.50
2022-11-05T05:23:07.893Z,8.50
2022-11-05T05:25:36.182Z,8.50
2022-11-05T05:28:04.769Z,8.50
2022-11-05T05:30:32.685Z,8.50
2022-11-05T05:33:03.458Z,8.50
2022-11-05T05:35:31.997Z,8.50
2022-11-05T05:37:59.926Z,8.50
2022-11-05T05:40:33.263Z,8.50
2022-11-05T05:43:02.632Z,8.50
2022-11-05T05:45:32.156Z,8.50
2022-11-05T05:48:00.231Z,8.50
2022-11-05T05:50:28.201Z,8.50
2022-11-05T05:52:56.662Z,8.60
2022-11-05T05:55:26.545Z,8.60
2022-11-05T05:57:57.431Z,8.60
2022-11-05T06:00:25.919Z,8.50
2022-11-05T06:02:56.545Z,8.60
2022-11-05T06:05:26.321Z,8.60
2022-11-05T06:07:57.667Z,8.60
2022-11-05T06:10:26.553Z,8.60
2022-11-05T06:12:56.107Z,8.60
2022-11-05T06:15:24.582Z,8.60
2022-11-05T06:17:52.562Z,8.60
2022-11-05T06:20:20.786Z,8.70
2022-11-05T06:22:55.836Z,8.70
2022-11-05T06:25:23.791Z,8.70
2022-11-05T06:27:51.704Z,8.70
2022-11-05T06:30:21.933Z,8.70
2022-11-05T06:32:50.395Z,8.70
2022-11-05T06:35:19.376Z,8.70
2022-11-05T06:37:47.469Z,8.70
2022-11-05T06:40:16.147Z,8.70
2022-11-05T06:42:45.546Z,8.70
2022-11-05T06:45:13.868Z,8.70
2022-11-05T06:47:45.647Z,8.60
2022-11-05T06:50:13.626Z,8.60
2022-11-05T06:52:41.555Z,8.60
2022-11-05T06:55:10.332Z,8.60
2022-11-05T06:57:38.923Z,8.60
2022-11-05T07:00:09.200Z,8.60
2022-11-05T07:02:37.764Z,8.60
2022-11-05T07:05:11.206Z,8.60
2022-11-05T07:07:39.545Z,8.60
2022-11-05T07:10:10.316Z,8.60
2022-11-05T07:12:38.697Z,8.60
2022-11-05T07:15:07.956Z,8.50
2022-11-05T07:17:36.081Z,8.60
2022-11-05T07:20:06.826Z,8.50
2022-11-05T07:22:38.077Z,8.50
2022-11-05T07:25:07.589Z,8.50
2022-11-05T07:27:39.633Z,8.50
2022-11-05T07:30:11.055Z,8.50
2022-11-05T07:32:41.992Z,8.50
2022-11-05T07:35:11.092Z,8.50
2022-11-05T07:37:47.346Z,8.60
2022-11-05T07:40:23.432Z,8.60
2022-11-05T07:42:53.736Z,8.60
2022-11-05T07:45:22.400Z,8.60
2022-11-05T07:47:51.815Z,8.60
2022-11-05T07:50:22.609Z,8.60
2022-11-05T07:52:52.871Z,8.60
2022-11-05T07:55:21.595Z,8.60
2022-11-05T07:57:51.131Z,8.70
2022-11-05T08:00:21.902Z,8.70
2022-11-05T08:03:04.000Z,8.70
2022-11-05T08:05:40.825Z,8.70
2022-11-05T08:08:12.230Z,8.70
2022-11-05T08:10:40.266Z,8.80
2022-11-05T08:13:09.340Z,8.80
2022-11-05T08:15:40.799Z,8.80
2022-11-05T08:18:11.956Z,8.80
2022-11-05T08:20:40.996Z,8.90
2022-11-05T08:23:11.724Z,8.90
2022-11-05T08:25:39.975Z,8.90
2022-11-05T08:28:12.365Z,8.90
2022-11-05T08:30:40.374Z,9.00
2022-11-05T08:33:10.720Z,9.00
2022-11-05T08:35:40.316Z,9.00
2022-11-05T08:38:13.667Z,9.10
2022-11-05T08:40:43.520Z,9.10
2022-11-05T08:43:13.652Z,9.10
2022-11-05T08:45:43.070Z,9.10
2022-11-05T08:48:12.553Z,9.20
2022-11-05T08:50:40.928Z,9.20
2022-11-05T08:53:11.671Z,9.20
2022-11-05T08:55:40.520Z,9.30
2022-11-05T08:58:12.579Z,9.30
2022-11-05T09:00:42.956Z,9.30
2022-11-05T09:03:11.912Z,9.40
2022-11-05T09:05:43.285Z,9.40
2022-11-05T09:08:14.630Z,9.40
2022-11-05T09:10:43.505Z,9.40
2022-11-05T09:13:17.813Z,9.50
2022-11-05T09:15:47.705Z,9.50
2022-11-05T09:18:16.219Z,9.50
2022-11-05T09:20:45.032Z,9.50
2022-11-05T09:23:16.869Z,9.50
2022-11-05T09:25:46.069Z,9.60
2022-11-05T09:28:17.868Z,9.60
2022-11-05T09:30:47.798Z,9.70
2022-11-05T09:33:20.195Z,9.70
2022-11-05T09:35:48.905Z,9.70
2022-11-05T09:38:18.897Z,9.80
2022-11-05T09:40:53.760Z,9.80
2022-11-05T09:43:31.485Z,9.80
2022-11-05T09:46:04.611Z,9.90
2022-11-05T09:48:35.213Z,10.00
2022-11-05T09:51:05.199Z,10.00
2022-11-05T09:53:39.737Z,10.10
2022-11-05T09:56:20.321Z,10.20
2022-11-05T09:58:56.269Z,10.20
2022-11-05T10:01:35.027Z,10.30
2022-11-05T10:04:09.185Z,10.40
2022-11-05T10:06:37.908Z,10.50
2022-11-05T10:09:14.878Z,10.50
2022-11-05T10:11:47.384Z,10.60
2022-11-05T10:14:21.227Z,10.60
2022-11-05T10:16:54.011Z,10.70
2022-11-05T10:19:25.136Z,10.80
2022-11-05T10:22:12.243Z,10.90
2022-11-05T10:24:46.423Z,11.00
2022-11-05T10:27:17.178Z,11.10
2022-11-05T10:29:46.678Z,11.10
2022-11-05T10:32:22.669Z,11.10
2022-11-05T10:34:51.568Z,11.20
2022-11-05T10:37:21.744Z,11.30
2022-11-05T10:39:51.441Z,11.40
2022-11-05T10:42:45.661Z,11.50
2022-11-05T10:45:22.670Z,11.60
2022-11-05T10:48:01.769Z,11.70
2022-11-05T10:50:31.757Z,11.80
2022-11-05T10:53:02.296Z,11.80
2022-11-05T10:55:34.312Z,11.90
2022-11-05T10:58:11.015Z,11.90
2022-11-05T11:00:42.212Z,12.00
2022-11-05T11:03:34.247Z,12.00
2022-11-05T11:06:04.416Z,12.00
2022-11-05T11:08:36.854Z,12.00
2022-11-05T11:11:08.961Z,12.00
2022-11-05T11:13:52.593Z,12.10
2022-11-05T11:16:23.311Z,12.10
2022-11-05T11:18:55.215Z,12.10
2022-11-05T11:21:24.248Z,12.10
2022-11-05T11:23:57.350Z,12.20
2022-11-05T11:26:30.044Z,12.20
2022-11-05T11:29:01.711Z,12.30
2022-11-05T11:31:33.161Z,12.30
2022-11-05T11:34:04.585Z,12.30
2022-11-05T11:36:42.007Z,12.30
2022-11-05T11:39:17.423Z,12.40
2022-11-05T11:41:57.141Z,12.40
2022-11-05T11:44:29.490Z,12.40
2022-11-05T11:47:02.258Z,12.40
2022-11-05T11:49:33.130Z,12.40
2022-11-05T11:52:05.024Z,12.50
2022-11-05T11:54:34.895Z,12.50
2022-11-05T11:57:04.764Z,12.50
2022-11-05T12:00:06.623Z,12.50
2022-11-05T12:02:47.166Z,12.50
2022-11-05T12:05:37.196Z,12.50
2022-11-05T12:08:28.848Z,12.50
2022-11-05T12:11:05.293Z,12.50
2022-11-05T12:13:55.058Z,12.60
2022-11-05T12:16:47.066Z,12.60
2022-11-05T12:19:26.111Z,12.60
2022-11-05T12:22:03.193Z,12.60
2022-11-05T12:24:59.630Z,12.60
2022-11-05T12:27:41.096Z,12.60
2022-11-05T12:30:15.203Z,12.60
2022-11-05T12:33:12.546Z,12.70
2022-11-05T12:35:57.621Z,12.70
2022-11-05T12:38:42.854Z,12.80
2022-11-05T12:41:23.865Z,12.80
2022-11-05T12:44:05.915Z,12.90
2022-11-05T12:46:42.031Z,12.90
2022-11-05T12:49:36.625Z,13.00
2022-11-05T12:52:19.004Z,13.00
2022-11-05T12:54:59.727Z,13.00
2022-11-05T12:57:29.803Z,13.00
2022-11-05T13:00:06.708Z,13.00
2022-11-05T13:02:42.025Z,13.00
2022-11-05T13:05:17.482Z,13.10
2022-11-05T13:07:53.508Z,13.10
2022-11-05T13:10:32.600Z,13.10
2022-11-05T13:13:06.839Z,13.10
2022-11-05T13:15:37.073Z,13.10
2022-11-05T13:18:15.473Z,13.10
2022-11-05T13:20:50.986Z,13.10
2022-11-05T13:23:28.587Z,13.10
2022-11-05T13:26:02.015Z,13.20
2022-11-05T13:28:41.937Z,13.20
2022-11-05T13:31:15.965Z,13.20
2022-11-05T13:33:53.842Z,13.20
2022-11-05T13:36:44.586Z,13.20
2022-11-05T13:39:21.052Z,13.20
2022-11-05T13:42:10.432Z,13.20
2022-11-05T13:45:03.781Z,13.20
2022-11-05T13:47:56.921Z,13.20
2022-11-05T13:51:01.550Z,13.20
2022-11-05T13:54:01.835Z,13.20
2022-11-05T13:56:47.439Z,13.20
2022-11-05T13:59:54.662Z,13.20
2022-11-05T14:02:25.880Z,13.20
2022-11-05T14:05:00.977Z,13.20
2022-11-05T14:07:32.793Z,13.20
2022-11-05T14:10:17.693Z,13.20
2022-11-05T14:12:50.826Z,13.20
2022-11-05T14:15:22.272Z,13.20
2022-11-05T14:17:59.092Z,13.20
2022-11-05T14:20:48.020Z,13.20
2022-11-05T14:23:54.852Z,13.20
2022-11-05T14:26:25.576Z,13.20
2022-11-05T14:29:29.403Z,13.10
2022-11-05T14:32:09.241Z,13.20
2022-11-05T14:34:48.813Z,13.10
2022-11-05T14:37:32.312Z,13.10
2022-11-05T14:40:29.153Z,13.10
2022-11-05T14:43:00.482Z,13.10
2022-11-05T14:45:31.399Z,13.10
2022-11-05T14:48:02.556Z,13.10
2022-11-05T14:50:36.571Z,13.10
2022-11-05T14:53:16.196Z,13.00
2022-11-05T14:55:46.027Z,13.00
2022-11-05T14:58:32.210Z,13.00
2022-11-05T15:01:01.154Z,12.90
2022-11-05T15:03:55.250Z,12.90
2022-11-05T15:06:26.938Z,12.90
2022-11-05T15:09:27.979Z,12.80
2022-11-05T15:12:09.343Z,12.80
2022-11-05T15:14:43.807Z,12.80
2022-11-05T15:17:21.422Z,12.70
2022-11-05T15:19:50.729Z,12.70
2022-11-05T15:22:30.819Z,12.70
2022-11-05T15:24:59.750Z,12.70
2022-11-05T15:27:46.347Z,12.60
2022-11-05T15:30:19.788Z,12.60
2022-11-05T15:32:48.917Z,12.60
2022-11-05T15:35:27.095Z,12.60
2022-11-05T15:38:01.666Z,12.50
2022-11-05T15:40:34.259Z,12.50
2022-11-05T15:43:20.871Z,12.50
2022-11-05T15:46:08.238Z,12.50
2022-11-05T15:48:39.414Z,12.50
2022-11-05T15:51:08.853Z,12.50
2022-11-05T15:56:50.602Z,12.40
2022-11-05T15:59:23.910Z,12.40
2022-11-05T16:01:54.905Z,12.40
2022-11-05T16:04:26.215Z,12.50
2022-11-05T16:06:56.289Z,12.50
2022-11-05T16:09:27.393Z,12.60
2022-11-05T16:12:13.637Z,12.60
2022-11-05T16:14:45.817Z,12.70
2022-11-05T16:17:21.713Z,12.60
2022-11-05T16:19:50.153Z,12.70
2022-11-05T16:22:19.392Z,12.70
2022-11-05T16:24:48.489Z,12.70
2022-11-05T16:27:19.827Z,12.70
2022-11-05T16:29:55.869Z,12.70
2022-11-05T16:32:30.595Z,12.60
2022-11-05T16:35:01.232Z,12.60
2022-11-05T16:37:36.536Z,12.50
2022-11-05T16:40:13.251Z,12.50
2022-11-05T16:42:42.423Z,12.50
2022-11-05T16:45:14.994Z,12.40
2022-11-05T16:47:44.605Z,12.40
2022-11-05T16:50:25.418Z,12.40
2022-11-05T16:52:54.169Z,12.40
2022-11-05T16:55:22.390Z,12.30
2022-11-05T16:57:54.389Z,12.40
2022-11-05T17:00:25.128Z,12.30
2022-11-05T17:02:54.190Z,12.30
2022-11-05T17:05:31.630Z,12.30
2022-11-05T17:08:01.579Z,12.40
2022-11-05T17:10:29.930Z,12.30
2022-11-05T17:12:58.817Z,12.30
2022-11-05T17:15:35.942Z,12.30
2022-11-05T17:18:13.974Z,12.30
2022-11-05T17:20:49.716Z,12.30
2022-11-05T17:23:20.558Z,12.30
2022-11-05T17:25:56.031Z,12.30
2022-11-05T17:28:24.991Z,12.30
2022-11-05T17:30:54.914Z,12.30
2022-11-05T17:33:24.342Z,12.30
2022-11-05T17:35:52.958Z,12.30
2022-11-05T17:38:21.848Z,12.30
2022-11-05T17:40:51.475Z,12.30
2022-11-05T17:43:20.774Z,12.30
2022-11-05T17:45:51.884Z,12.30
2022-11-05T17:48:22.404Z,12.30
2022-11-05T17:50:51.668Z,12.30
2022-11-05T17:53:22.141Z,12.30
2022-11-05T17:55:53.137Z,12.30
2022-11-05T17:58:21.416Z,12.30
2022-11-05T18:00:50.883Z,12.30
2022-11-05T18:03:19.813Z,12.30
2022-11-05T18:05:50.226Z,12.30
2022-11-05T18:08:18.448Z,12.30
2022-11-05T18:10:47.250Z,12.30
2022-11-05T18:13:16.032Z,12.30
2022-11-05T18:15:46.828Z,12.30
2022-11-05T18:18:14.742Z,12.30
2022-11-05T18:20:44.415Z,12.30
2022-11-05T18:23:14.269Z,12.20
2022-11-05T18:25:44.216Z,12.30
2022-11-05T18:28:12.728Z,12.20
2022-11-05T18:30:41.419Z,12.20
2022-11-05T18:33:10.446Z,12.20
2022-11-05T18:35:45.370Z,12.20
2022-11-05T18:38:14.782Z,12.20
2022-11-05T18:40:44.110Z,12.20
2022-11-05T18:43:15.646Z,12.20
2022-11-05T18:45:44.499Z,12.20
2022-11-05T18:48:13.993Z,12.10
2022-11-05T18:50:45.028Z,12.10
2022-11-05T18:53:14.552Z,12.10
2022-11-05T18:55:42.570Z,12.10
2022-11-05T18:58:10.876Z,12.10
2022-11-05T19:00:41.041Z,12.10
2022-11-05T19:03:10.031Z,12.10
2022-11-05T19:05:38.237Z,12.10
2022-11-05T19:08:06.625Z,12.10
2022-11-05T19:10:36.334Z,12.00
2022-11-05T19:13:05.068Z,12.00
2022-11-05T19:15:33.037Z,12.00
2022-11-05T19:18:08.074Z,12.00
2022-11-05T19:20:37.901Z,12.00
2022-11-05T19:23:06.950Z,12.00
2022-11-05T19:25:38.421Z,12.00
2022-11-05T19:28:08.824Z,12.00
2022-11-05T19:30:40.993Z,12.00
2022-11-05T19:33:09.163Z,11.90
2022-11-05T19:35:41.634Z,12.00
2022-11-05T19:38:10.518Z,11.90
2022-11-05T19:40:40.079Z,11.90
2022-11-05T19:43:08.325Z,11.90
2022-11-05T19:45:44.779Z,11.90
2022-11-05T19:48:19.077Z,11.90
2022-11-05T19:50:48.675Z,11.90
2022-11-05T19:53:16.877Z,11.90
2022-11-05T19:55:48.751Z,11.90
2022-11-05T19:58:20.446Z,11.90
2022-11-05T20:00:48.346Z,11.90
2022-11-05T20:03:16.269Z,11.80
2022-11-05T20:05:44.559Z,11.80
2022-11-05T20:08:12.882Z,11.80
2022-11-05T20:10:41.002Z,11.80
2022-11-05T20:13:13.219Z,11.80
2022-11-05T20:15:46.334Z,11.80
2022-11-05T20:18:16.265Z,11.80
2022-11-05T20:20:46.258Z,11.80
2022-11-05T20:23:15.296Z,11.80
2022-11-05T20:25:43.444Z,11.80
2022-11-05T20:28:14.391Z,11.80
2022-11-05T20:30:42.584Z,11.80
2022-11-05T20:33:13.123Z,11.70
2022-11-05T20:35:44.345Z,11.70
2022-11-05T20:38:14.994Z,11.70
2022-11-05T20:40:43.268Z,11.70
2022-11-05T20:43:13.282Z,11.70
2022-11-05T20:45:44.135Z,11.70
2022-11-05T20:48:12.242Z,11.70
2022-11-05T20:50:41.951Z,11.70
2022-11-05T20:53:10.225Z,11.70
2022-11-05T20:55:46.303Z,11.70
2022-11-05T20:58:17.383Z,11.70
2022-11-05T21:00:52.496Z,11.70
2022-11-05T21:03:20.452Z,11.70
2022-11-05T21:05:49.497Z,11.60
2022-11-05T21:08:17.978Z,11.70
2022-11-05T21:10:51.099Z,11.70
2022-11-05T21:13:21.209Z,11.60
2022-11-05T21:15:50.647Z,11.60
2022-11-05T21:18:20.974Z,11.60
2022-11-05T21:20:51.545Z,11.70
2022-11-05T21:23:20.494Z,11.60
2022-11-05T21:25:48.768Z,11.60
2022-11-05T21:28:17.581Z,11.60
2022-11-05T21:30:49.354Z,11.60
2022-11-05T21:33:19.503Z,11.60
2022-11-05T21:35:49.177Z,11.60
2022-11-05T21:38:18.675Z,11.60
2022-11-05T21:40:47.257Z,11.60
2022-11-05T21:43:15.691Z,11.60
2022-11-05T21:45:47.165Z,11.60
2022-11-05T21:48:18.478Z,11.60
2022-11-05T21:51:08.601Z,11.50
2022-11-05T21:53:53.874Z,11.50
2022-11-05T21:56:43.757Z,11.50
2022-11-05T21:59:31.950Z,11.50
2022-11-05T22:02:02.905Z,11.50
2022-11-05T22:04:34.103Z,11.50
2022-11-05T22:07:02.539Z,11.50
2022-11-05T22:09:31.099Z,11.50
2022-11-05T22:12:01.292Z,11.50
2022-11-05T22:14:29.744Z,11.50
2022-11-05T22:16:58.094Z,11.50
2022-11-05T22:19:26.648Z,11.50
2022-11-05T22:21:56.233Z,11.50
2022-11-05T22:24:25.279Z,11.50
2022-11-05T22:26:54.032Z,11.50
2022-11-05T22:29:22.217Z,11.50
2022-11-05T22:31:50.298Z,11.50
2022-11-05T22:34:18.674Z,11.50
2022-11-05T22:36:46.651Z,11.50
2022-11-05T22:39:16.839Z,11.50
2022-11-05T22:41:45.062Z,11.60
2022-11-05T22:44:14.170Z,11.50
2022-11-05T22:46:42.843Z,11.50
2022-11-05T22:49:10.796Z,11.50
2022-11-05T22:51:40.505Z,11.50
2022-11-05T22:54:09.382Z,11.50
2022-11-05T22:56:41.409Z,11.50
2022-11-05T22:59:12.556Z,11.50
2022-11-05T23:01:41.674Z,11.50
2022-11-05T23:04:10.335Z,11.50
2022-11-05T23:06:56.323Z,11.50
2022-11-05T23:09:47.024Z,11.50
2022-11-05T23:12:32.629Z,11.50
2022-11-05T23:15:02.845Z,11.50
2022-11-05T23:17:49.114Z,11.50
2022-11-05T23:20:36.322Z,11.50
2022-11-05T23:23:22.648Z,11.50
2022-11-05T23:25:50.752Z,11.50
2022-11-05T23:28:21.280Z,11.50
2022-11-05T23:31:06.504Z,11.50
2022-11-05T23:33:39.234Z,11.50
2022-11-05T23:36:25.520Z,11.50
2022-11-05T23:38:53.587Z,11.50
2022-11-05T23:41:39.379Z,11.50
2022-11-05T23:44:27.764Z,11.50
2022-11-05T23:47:13.284Z,11.50
2022-11-05T23:49:41.217Z,11.50
2022-11-05T23:52:11.742Z,11.50
2022-11-05T23:54:40.559Z,11.50
2022-11-05T23:57:08.468Z,11.50
2022-11-05T23:59:38.181Z,11.50
